createdAt,value
2024-04-12T00:03:03.065Z,47.90
2024-04-12T00:13:05.541Z,48.00
2024-04-12T00:23:08.100Z,48.10
2024-04-12T00:33:11.807Z,48.20
2024-04-12T00:43:19.067Z,48.40
2024-04-12T00:53:23.679Z,49.20
2024-04-12T01:03:26.010Z,48.70
2024-04-12T01:13:29.120Z,48.80
2024-04-12T01:23:31.635Z,49.00
2024-04-12T01:33:40.075Z,49.10
2024-04-12T01:43:42.220Z,49.90
2024-04-12T01:53:44.312Z,49.20
2024-04-12T02:03:49.032Z,49.30
2024-04-12T02:13:53.768Z,49.40
2024-04-12T02:23:56.048Z,49.90
2024-04-12T02:33:59.502Z,49.70
2024-04-12T02:44:05.123Z,49.80
2024-04-12T02:54:07.264Z,50.00
2024-04-12T03:04:11.346Z,50.10
2024-04-12T03:14:14.173Z,50.30
2024-04-12T03:24:16.382Z,50.90
2024-04-12T03:34:18.540Z,50.50
2024-04-12T03:44:21.108Z,50.60
2024-04-12T03:54:28.138Z,50.70
2024-04-12T04:04:38.590Z,50.90
2024-04-12T04:14:49.016Z,50.90
2024-04-12T04:24:54.929Z,51.00
2024-04-12T04:35:06.680Z,51.20
2024-04-12T04:45:09.788Z,51.30
2024-04-12T04:55:13.702Z,51.40
2024-04-12T05:05:26.015Z,51.50
2024-04-12T05:15:50.279Z,51.70
2024-04-12T05:25:55.086Z,51.80
2024-04-12T05:35:57.950Z,52.00
2024-04-12T05:46:02.100Z,52.20
2024-04-12T05:56:22.890Z,52.50
2024-04-12T06:06:25.760Z,52.60
2024-04-12T06:16:28.580Z,52.90
2024-04-12T06:26:30.755Z,53.20
2024-04-12T06:36:35.332Z,53.40
2024-04-12T06:46:37.757Z,53.90
2024-04-12T06:56:39.930Z,53.90
2024-04-12T07:06:42.453Z,53.70
2024-04-12T07:16:44.619Z,53.40
2024-04-12T07:26:48.559Z,52.90
2024-04-12T07:36:53.646Z,52.60
2024-04-12T07:46:59.713Z,52.10
2024-04-12T07:57:09.246Z,51.70
2024-04-12T08:07:19.562Z,51.20
2024-04-12T08:17:29.305Z,51.10
2024-04-12T08:27:32.856Z,63.00
2024-04-12T08:37:41.192Z,51.00
2024-04-12T08:48:02.703Z,50.90
2024-04-12T08:58:08.128Z,51.00
2024-04-12T09:08:19.211Z,50.50
2024-04-12T09:18:28.539Z,49.70
2024-04-12T09:28:33.664Z,49.30
2024-04-12T09:38:40.777Z,49.20
2024-04-12T09:49:02.512Z,49.40
2024-04-12T09:59:44.835Z,49.80
2024-04-12T10:10:06.040Z,49.00
2024-04-12T10:20:29.658Z,48.70
2024-04-12T10:31:04.154Z,48.50
2024-04-12T10:41:09.150Z,47.80
2024-04-12T10:51:16.124Z,47.80
2024-04-12T11:01:19.110Z,48.20
2024-04-12T11:11:27.622Z,48.10
2024-04-12T11:21:48.918Z,48.00
2024-04-12T11:31:54.132Z,47.80
2024-04-12T11:41:56.903Z,48.40
2024-04-12T11:52:03.067Z,47.60
2024-04-12T12:02:07.169Z,48.00
2024-04-12T12:12:13.086Z,47.70
2024-04-12T12:22:15.918Z,47.40
2024-04-12T12:32:18.078Z,47.60
2024-04-12T12:42:21.287Z,47.80
2024-04-12T12:52:24.050Z,47.80
2024-04-12T13:02:26.908Z,47.90
2024-04-12T13:12:30.897Z,47.10
2024-04-12T13:22:34.199Z,47.20
2024-04-12T13:32:43.897Z,47.20
2024-04-12T13:42:49.367Z,47.10
2024-04-12T13:52:51.502Z,46.30
2024-04-12T14:02:55.478Z,46.60
2024-04-12T14:12:57.619Z,46.40
2024-04-12T14:22:59.713Z,46.10
2024-04-12T14:33:01.969Z,46.10
2024-04-12T14:43:07.433Z,45.80
2024-04-12T14:53:09.639Z,57.70
2024-04-12T15:03:30.312Z,45.00
2024-04-12T15:13:51.095Z,44.90
2024-04-12T15:24:12.101Z,45.10
2024-04-12T15:34:32.611Z,45.00
2024-04-12T15:44:53.159Z,45.20
2024-04-12T15:55:08.936Z,45.40
2024-04-12T16:05:29.666Z,45.50
2024-04-12T16:15:31.782Z,45.70
2024-04-12T16:25:35.817Z,46.20
2024-04-12T16:35:40.895Z,46.70
2024-04-12T16:45:43.276Z,46.80
2024-04-12T16:55:45.494Z,47.20
2024-04-12T17:05:48.050Z,47.60
2024-04-12T17:15:51.326Z,48.00
2024-04-12T17:25:53.450Z,48.40
2024-04-12T17:35:59.056Z,48.50
2024-04-12T17:46:01.928Z,49.20
2024-04-12T17:56:04.558Z,49.20
2024-04-12T18:06:11.431Z,49.50
2024-04-12T18:16:13.566Z,49.80
2024-04-12T18:26:15.750Z,49.80
2024-04-12T18:36:25.444Z,49.90
2024-04-12T18:46:27.603Z,50.00
2024-04-12T18:56:30.215Z,50.10
2024-04-12T19:06:33.935Z,50.20
2024-04-12T19:16:36.006Z,50.30
2024-04-12T19:26:38.111Z,50.40
2024-04-12T19:36:44.172Z,50.20
2024-04-12T19:46:46.258Z,50.40
2024-04-12T19:56:48.357Z,50.70
2024-04-12T20:06:52.963Z,51.00
2024-04-12T20:16:55.615Z,51.40
2024-04-12T20:26:58.009Z,59.50
2024-04-12T20:37:00.123Z,58.40
2024-04-12T20:47:02.294Z,52.00
2024-04-12T20:57:04.886Z,52.20
2024-04-12T21:07:08.037Z,52.30
2024-04-12T21:17:12.958Z,52.50
2024-04-12T21:27:15.146Z,52.80
2024-04-12T21:37:17.254Z,53.10
2024-04-12T21:47:19.434Z,53.30
2024-04-12T21:57:21.902Z,53.50
2024-04-12T22:07:24.039Z,53.70
2024-04-12T22:17:26.191Z,54.40
2024-04-12T22:27:28.937Z,54.10
2024-04-12T22:37:31.057Z,54.30
2024-04-12T22:47:33.553Z,54.40
2024-04-12T22:57:39.114Z,54.80
2024-04-12T23:07:41.302Z,54.90
2024-04-12T23:17:43.626Z,55.10
2024-04-12T23:27:45.889Z,55.20
2024-04-12T23:37:49.170Z,55.50
2024-04-12T23:47:51.570Z,55.70
2024-04-12T23:57:53.855Z,55.90
